• Join FlightAware (Why Join?)
  • Login
  • US Flag 
01:29PM EDT


 

Airport Tracker/Info


-or-


 

Live Flight TrackerFlight Track Log ✈ UCA3597 ✈ 27-Apr-2014 ✈ KIAD - KBGM

Flight Track Log - Related Links

Times and Time Zones

All times are in EDT time to prevent confusion due to time zone crossing. See the UCA3597 flight status page for this flight to view local times or setup timezone preferences in your user account.

Time Position Orientation Groundspeed Altitude Reporting Facility
EDT Latitude Longitude Course Direction KTS MPH feet Rate Location/Type
05:53PM 39.9546 -77.0188 19° North  Level Estimated
05:54PM 40.0049 -76.9964 19° North  Level Estimated
05:55PM 40.0552 -76.9740 19° North  Level Estimated
05:56PM 40.1055 -76.9516 19° North  Level Estimated
05:57PM 40.1558 -76.9291 19° North  Level Estimated
05:58PM 40.2061 -76.9065 19° North  Level Estimated
05:59PM 40.2564 -76.8840 19° North  Level Estimated
06:00PM 40.3067 -76.8614 19° North  Level Estimated
06:01PM 40.3570 -76.8388 19° North  Level Estimated
06:02PM 40.4073 -76.8161 19° North  Level Estimated
06:03PM 40.4608 -76.7919 19° North  Level Estimated
06:04PM 40.5144 -76.7677 19° North  Level Estimated
06:05PM 40.5680 -76.7434 19° North  Level Estimated
06:06PM 40.6215 -76.7191 19° North  Level Estimated
06:07PM 40.6751 -76.6948 19° North  Level Estimated
06:08PM 40.7286 -76.6704 19° North  Level Estimated
06:09PM 40.7822 -76.6460 19° North  Level Estimated
06:10PM 40.8357 -76.6215 19° North  Level Estimated
06:11PM 40.8892 -76.5970 19° North  Level Estimated
06:12PM 40.9428 -76.5725 19° North  Level Estimated
06:13PM 40.9963 -76.5479 19° North  Level Estimated
06:14PM 41.0498 -76.5233 19° North  Level Estimated
06:15PM 41.1033 -76.4986 19° North  Level Estimated
06:16PM 41.1568 -76.4739 19° North  Level Estimated
06:17PM 41.2103 -76.4492 19° North  Level Estimated
06:18PM 41.2638 -76.4244 19° North  Level Estimated
06:19PM 41.3173 -76.3996 19° North  Level Estimated
06:20PM 41.3708 -76.3747 19° North  Level Estimated
06:21PM 41.4242 -76.3498 19° North  Level Estimated
06:22PM 41.4777 -76.3249 19° North  Level Estimated
06:23PM 41.5312 -76.2999 19° North  Level Estimated
06:24PM 41.5846 -76.2749 19° North  Level Estimated
06:25PM 41.6381 -76.2498 19° North  Level Estimated
06:26PM 41.6916 -76.2247 19° North  Level Estimated
06:27PM 41.7450 -76.1996 19° North  Level Estimated
06:28PM 41.7984 -76.1744 19° North  Level Estimated
06:29PM 41.8519 -76.1491 19° North  Level Estimated
06:30PM 41.9053 -76.1239 19° North  Level Estimated
06:31PM 41.9587 -76.0985 19° North  Level Estimated
06:32PM 42.0121 -76.0732 19° North  Level Estimated
06:33PM 42.0656 -76.0478 19° North  Level Estimated
06:34PM 42.1189 -76.0223 19° North  Level Estimated
06:35PM 42.1724 -75.9969 19° North  Level Estimated
06:36PM 42.2084 -75.9796 19° North  Level Estimated
06:37PM 42.2084 -75.9796 North  Level Estimated
06:38PM 42.2084 -75.9796 North  Level Estimated
06:39PM 42.2084 -75.9796 North  Level Estimated
06:40PM 42.2084 -75.9796 North  Level Estimated
06:41PM 42.2084 -75.9796 North  Level Estimated
06:42PM 42.2084 -75.9796 North  Level Estimated
06:43PM 42.2084 -75.9796 North  Level Estimated
06:44PM 42.2084 -75.9796 North  Level Estimated
06:45PM 42.2084 -75.9796 North  Level Estimated
06:46PM 42.2084 -75.9796 North  Level Estimated
06:47PM 42.2084 -75.9796 North  Level Estimated
06:48PM 42.2084 -75.9796 North  Level Estimated
06:49PM 42.2084 -75.9796 North  Level Estimated
06:50PM 42.2084 -75.9796 North  Level Estimated